Time;durP1;ratioP1;P1;durP2;ratioP2;P2;SDS_P1;SDS_P2;PMS_P1;PMS_P2;Temp;Humidity;BMP_temperature;BMP_pressure;BME280_temperature;BME280_humidity;BME280_pressure;Samples;Min_cycle;Max_cycle;Signal;HPM_P1;HPM_P2
2022/04/22 00:00:10;;;;;;;40.75;19.63;;;9.90;99.90;;;;;;5028161;28;20045;-68
2022/04/22 00:02:38;;;;;;;31.33;18.40;;;9.80;99.90;;;;;;5027755;28;20058;-68
2022/04/22 00:05:05;;;;;;;32.20;17.23;;;9.80;99.90;;;;;;5027960;28;20068;-68
2022/04/22 00:07:30;;;;;;;27.40;19.10;;;9.80;99.90;;;;;;5025327;28;20065;-68
2022/04/22 00:09:56;;;;;;;34.40;18.77;;;9.80;99.90;;;;;;5023327;28;20108;-68
2022/04/22 00:12:22;;;;;;;26.85;18.20;;;9.70;99.90;;;;;;5031911;28;20053;-69
2022/04/22 00:14:48;;;;;;;35.58;19.17;;;9.60;99.90;;;;;;5027708;28;20049;-69
2022/04/22 00:17:14;;;;;;;39.17;20.17;;;9.60;99.90;;;;;;5026226;28;20111;-69
2022/04/22 00:19:40;;;;;;;36.55;19.15;;;9.60;99.90;;;;;;5027877;28;20498;-68
2022/04/22 00:22:06;;;;;;;39.03;20.52;;;9.50;99.90;;;;;;5027499;28;20051;-69
2022/04/22 00:24:31;;;;;;;35.90;22.08;;;9.50;99.90;;;;;;5027490;28;20048;-69
2022/04/22 00:26:57;;;;;;;29.50;19.50;;;9.40;99.90;;;;;;5020136;28;20387;-69
2022/04/22 00:29:23;;;;;;;36.58;20.38;;;9.40;99.90;;;;;;5021936;28;20053;-68
2022/04/22 00:31:49;;;;;;;44.20;22.20;;;9.40;99.90;;;;;;5027740;28;20069;-69
2022/04/22 00:34:14;;;;;;;33.30;20.55;;;9.40;99.90;;;;;;5027725;28;20764;-69
2022/04/22 00:36:40;;;;;;;33.40;20.85;;;9.30;99.90;;;;;;5026504;28;20045;-69
2022/04/22 00:39:06;;;;;;;36.42;20.17;;;9.40;99.90;;;;;;5022097;28;20124;-68
2022/04/22 00:41:32;;;;;;;38.28;21.63;;;9.30;99.90;;;;;;5027646;28;20445;-69
2022/04/22 00:43:57;;;;;;;38.92;22.25;;;9.30;99.90;;;;;;5027849;28;20116;-69
2022/04/22 00:46:23;;;;;;;38.92;23.20;;;9.30;99.90;;;;;;5027516;28;20092;-68
2022/04/22 00:48:50;;;;;;;33.47;23.15;;;9.30;99.90;;;;;;5028015;28;20562;-65
2022/04/22 00:51:18;;;;;;;39.00;23.17;;;9.30;99.90;;;;;;5027544;28;20152;-66
2022/04/22 00:53:49;;;;;;;37.00;23.35;;;9.20;99.90;;;;;;5027957;28;20056;-65
2022/04/22 00:56:15;;;;;;;34.08;22.42;;;9.10;99.90;;;;;;5021966;28;20129;-65
2022/04/22 00:58:44;;;;;;;47.80;24.77;;;9.10;99.90;;;;;;5026648;28;20136;-66
2022/04/22 01:01:13;;;;;;;45.28;22.00;;;9.10;99.90;;;;;;5027612;28;20045;-66
2022/04/22 01:09:47;;;;;;;37.45;21.52;;;9.10;99.90;;;;;;5026499;28;20092;-66
2022/04/22 01:12:02;;;;;;;40.35;24.55;;;9.10;99.90;;;;;;5007701;28;20050;-66
2022/04/22 01:14:28;;;;;;;36.72;21.90;;;9.00;99.90;;;;;;5017208;28;20077;-65
2022/04/22 01:16:55;;;;;;;31.95;21.67;;;8.90;99.90;;;;;;5027415;28;20576;-65
2022/04/22 01:19:20;;;;;;;41.78;22.10;;;8.90;99.90;;;;;;5041072;28;20497;-65
2022/04/22 01:21:46;;;;;;;34.30;22.02;;;8.80;99.90;;;;;;5037994;28;20045;-66
2022/04/22 01:24:12;;;;;;;37.63;22.67;;;8.80;99.90;;;;;;5030741;28;20033;-65
2022/04/22 01:26:37;;;;;;;28.50;20.38;;;8.70;99.90;;;;;;5030468;28;20042;-66
2022/04/22 01:29:04;;;;;;;36.70;21.55;;;8.70;99.90;;;;;;5032309;28;20033;-66
2022/04/22 01:31:29;;;;;;;43.15;22.85;;;8.60;99.90;;;;;;5030659;28;20095;-66
2022/04/22 01:33:55;;;;;;;37.08;22.33;;;8.50;99.90;;;;;;5029526;28;20449;-66
2022/04/22 01:36:21;;;;;;;36.22;22.20;;;8.50;99.90;;;;;;5030249;28;20140;-66
2022/04/22 01:38:47;;;;;;;40.22;23.00;;;8.50;99.90;;;;;;5031033;28;20244;-66
2022/04/22 01:41:12;;;;;;;47.60;22.92;;;8.40;99.90;;;;;;5030685;28;20034;-66
2022/04/22 01:43:38;;;;;;;40.22;24.55;;;8.30;99.90;;;;;;5024726;28;20041;-66
2022/04/22 01:46:04;;;;;;;39.40;23.05;;;8.30;99.90;;;;;;5029342;28;20049;-66
2022/04/22 01:48:30;;;;;;;39.90;22.52;;;8.30;99.90;;;;;;5028560;28;20063;-66
2022/04/22 01:50:58;;;;;;;38.25;23.15;;;8.30;99.90;;;;;;5029266;28;20056;-66
2022/04/22 01:53:23;;;;;;;39.67;24.37;;;8.30;99.90;;;;;;5013106;28;20049;-65
2022/04/22 01:55:49;;;;;;;40.75;23.35;;;8.30;99.90;;;;;;5030959;28;20041;-66
2022/04/22 01:58:15;;;;;;;45.17;24.60;;;8.20;99.90;;;;;;5030676;28;20149;-66
2022/04/22 02:00:40;;;;;;;39.10;22.75;;;8.20;99.90;;;;;;5030325;28;20103;-66
2022/04/22 02:03:06;;;;;;;37.30;24.17;;;8.20;99.90;;;;;;5046907;28;20037;-67
2022/04/22 02:05:33;;;;;;;34.33;22.50;;;8.10;99.90;;;;;;5032846;28;20157;-66
2022/04/22 02:07:59;;;;;;;34.63;20.85;;;8.20;99.90;;;;;;5033689;28;20572;-66
2022/04/22 02:10:24;;;;;;;36.78;23.38;;;8.10;99.90;;;;;;5029265;28;20053;-66
2022/04/22 02:12:50;;;;;;;36.33;22.65;;;8.10;99.90;;;;;;5029709;28;20049;-66
2022/04/22 02:15:18;;;;;;;33.10;22.45;;;8.10;99.90;;;;;;5029638;28;20049;-66
2022/04/22 02:17:44;;;;;;;43.55;25.35;;;8.10;99.90;;;;;;5030198;28;20045;-66
2022/04/22 02:20:11;;;;;;;38.88;23.55;;;8.10;99.90;;;;;;5029914;28;20854;-66
2022/04/22 02:22:36;;;;;;;39.00;22.48;;;8.10;99.90;;;;;;5028325;28;20053;-66
2022/04/22 02:25:03;;;;;;;34.45;21.52;;;8.00;99.90;;;;;;5030206;28;20045;-66
2022/04/22 02:30:13;;;;;;;41.45;23.45;;;8.00;99.90;;;;;;5010019;28;20050;-66
2022/04/22 02:32:38;;;;;;;32.40;20.98;;;8.00;99.90;;;;;;5020611;28;20574;-66
2022/04/22 02:35:04;;;;;;;30.10;20.48;;;7.90;99.90;;;;;;5029755;28;20124;-66
2022/04/22 02:37:30;;;;;;;34.40;21.35;;;7.90;99.90;;;;;;5029351;28;20106;-66
2022/04/22 02:39:56;;;;;;;33.97;20.17;;;7.90;99.90;;;;;;5029949;28;20053;-66
2022/04/22 02:47:51;;;;;;;32.80;21.38;;;8.00;99.90;;;;;;5021874;28;20046;-66
2022/04/22 02:50:16;;;;;;;24.48;17.85;;;8.10;99.90;;;;;;5026172;28;20037;-66
2022/04/22 02:52:42;;;;;;;29.75;19.98;;;8.00;99.90;;;;;;5031243;28;20124;-66
2022/04/22 02:55:08;;;;;;;36.92;18.85;;;8.00;99.90;;;;;;5037355;28;20048;-69
2022/04/22 02:57:33;;;;;;;32.58;20.00;;;7.90;99.90;;;;;;5028727;28;20037;-68
2022/04/22 02:59:59;;;;;;;28.98;18.08;;;7.90;99.90;;;;;;5031885;28;20406;-68
2022/04/22 03:02:25;;;;;;;33.50;17.20;;;7.80;99.90;;;;;;5028857;28;20041;-68
2022/04/22 03:04:50;;;;;;;29.60;19.05;;;7.80;99.90;;;;;;5028851;28;20056;-68
2022/04/22 03:07:16;;;;;;;31.63;19.13;;;7.70;99.90;;;;;;5028411;28;20416;-68
2022/04/22 03:09:42;;;;;;;26.95;18.23;;;7.70;99.90;;;;;;5028971;28;20148;-69
2022/04/22 03:12:08;;;;;;;27.52;16.58;;;7.70;99.90;;;;;;5028455;28;20045;-68
2022/04/22 03:14:34;;;;;;;39.55;18.85;;;7.60;99.90;;;;;;5025338;28;20477;-68
2022/04/22 03:17:02;;;;;;;22.48;15.52;;;7.60;99.90;;;;;;5009400;28;20088;-69
2022/04/22 03:19:28;;;;;;;22.33;15.00;;;7.60;99.90;;;;;;5017467;28;20049;-68
2022/04/22 03:21:53;;;;;;;26.23;15.40;;;7.60;99.90;;;;;;5028085;28;20045;-68
2022/04/22 03:24:21;;;;;;;24.00;15.13;;;7.60;99.90;;;;;;5015777;28;20050;-68
2022/04/22 03:26:50;;;;;;;23.65;13.65;;;7.60;99.90;;;;;;5027369;28;20084;-69
2022/04/22 03:29:15;;;;;;;29.45;15.35;;;7.60;99.90;;;;;;5015455;28;20084;-69
2022/04/22 03:31:41;;;;;;;23.67;14.02;;;7.60;99.90;;;;;;5021247;28;20524;-68
2022/04/22 03:34:06;;;;;;;21.85;13.25;;;7.50;99.90;;;;;;5026415;28;20049;-67
2022/04/22 03:36:34;;;;;;;18.98;13.68;;;7.50;99.90;;;;;;5011214;28;20763;-68
2022/04/22 03:38:59;;;;;;;27.92;14.70;;;7.50;99.90;;;;;;5016554;28;20116;-67
2022/04/22 03:41:25;;;;;;;25.63;15.05;;;7.50;99.90;;;;;;5028036;28;20152;-67
2022/04/22 03:43:51;;;;;;;22.63;13.85;;;7.50;99.90;;;;;;5028261;28;20053;-67
2022/04/22 03:46:16;;;;;;;18.58;13.32;;;7.50;99.90;;;;;;5022924;28;20045;-67
2022/04/22 03:48:42;;;;;;;24.40;14.07;;;7.50;99.90;;;;;;5018127;28;20521;-67
2022/04/22 03:51:07;;;;;;;20.83;12.60;;;7.40;99.90;;;;;;5020384;28;20053;-67
2022/04/22 03:53:37;;;;;;;17.15;13.45;;;7.40;99.90;;;;;;5023213;28;20482;-67
2022/04/22 03:58:48;;;;;;;23.65;12.60;;;7.30;99.90;;;;;;5027143;28;20084;-67
2022/04/22 04:01:13;;;;;;;22.45;13.43;;;7.30;99.90;;;;;;5023625;28;20096;-68
2022/04/22 04:03:39;;;;;;;20.55;12.73;;;7.20;99.90;;;;;;5025275;28;20052;-67
2022/04/22 04:06:07;;;;;;;25.55;14.82;;;7.30;99.90;;;;;;5019284;28;20084;-67
2022/04/22 04:08:33;;;;;;;18.37;13.40;;;7.20;99.90;;;;;;5027161;28;20787;-67
2022/04/22 04:15:57;;;;;;;26.65;13.80;;;7.20;99.90;;;;;;5027302;28;20056;-67
2022/04/22 04:16:28;;;;;;;22.98;14.52;;;7.10;99.90;;;;;;5024111;28;20061;-67
2022/04/22 04:23:14;;;;;;;17.00;12.95;;;7.10;99.90;;;;;;5023967;28;20034;-67
2022/04/22 04:24:24;;;;;;;23.08;14.23;;;7.10;99.90;;;;;;5024540;28;20458;-67
2022/04/22 04:26:50;;;;;;;23.17;13.63;;;7.10;99.90;;;;;;5024876;28;20063;-68
2022/04/22 04:29:16;;;;;;;18.17;13.68;;;7.10;99.90;;;;;;5027802;28;20452;-67
2022/04/22 04:31:41;;;;;;;21.33;12.98;;;7.10;99.90;;;;;;5024901;28;20597;-67
2022/04/22 04:34:07;;;;;;;30.67;14.40;;;7.10;99.90;;;;;;5025140;28;20046;-67
2022/04/22 04:36:32;;;;;;;22.98;12.98;;;7.10;99.90;;;;;;5022575;28;20053;-67
2022/04/22 04:38:58;;;;;;;24.60;14.90;;;7.10;99.90;;;;;;5022306;28;20041;-68
2022/04/22 04:41:25;;;;;;;24.45;13.15;;;7.20;99.90;;;;;;5027399;28;20502;-67
2022/04/22 04:43:51;;;;;;;22.08;14.80;;;7.30;99.90;;;;;;5023958;28;20033;-67
2022/04/22 04:46:17;;;;;;;28.98;14.63;;;7.30;99.90;;;;;;5026141;28;20057;-67
2022/04/22 04:48:43;;;;;;;26.27;14.57;;;7.40;99.90;;;;;;5023835;28;20073;-67
2022/04/22 04:51:09;;;;;;;24.15;14.10;;;7.40;99.90;;;;;;5027296;28;20146;-67
2022/04/22 04:53:35;;;;;;;22.38;13.82;;;7.50;99.90;;;;;;5022491;28;20079;-69
2022/04/22 04:56:01;;;;;;;16.90;12.10;;;7.60;99.90;;;;;;5029093;28;20615;-69
2022/04/22 04:58:26;;;;;;;26.98;13.30;;;7.70;99.90;;;;;;5029863;28;20041;-69
2022/04/22 05:00:52;;;;;;;23.17;13.63;;;7.70;99.90;;;;;;5029705;28;20053;-68
2022/04/22 05:03:18;;;;;;;20.25;13.18;;;7.70;99.90;;;;;;5031191;28;20120;-69
2022/04/22 05:05:43;;;;;;;24.52;14.07;;;7.70;99.90;;;;;;5028112;28;20041;-69
2022/04/22 05:08:09;;;;;;;19.15;12.75;;;7.80;99.90;;;;;;5030699;28;20045;-68
2022/04/22 05:10:36;;;;;;;25.42;13.35;;;7.80;99.90;;;;;;5031963;28;20053;-68
2022/04/22 05:13:03;;;;;;;21.77;13.15;;;7.90;99.90;;;;;;5031698;28;20116;-69
2022/04/22 05:15:30;;;;;;;18.55;12.18;;;7.90;99.90;;;;;;5026527;28;20048;-69
2022/04/22 05:17:57;;;;;;;20.83;12.55;;;7.90;99.90;;;;;;5030837;28;20041;-69
2022/04/22 05:20:26;;;;;;;21.20;12.98;;;8.00;99.90;;;;;;5030396;28;20046;-69
2022/04/22 05:22:55;;;;;;;19.42;12.35;;;8.00;99.90;;;;;;5029217;28;20512;-69
2022/04/22 05:25:22;;;;;;;16.77;12.77;;;8.10;99.90;;;;;;5029123;28;20045;-68
2022/04/22 05:27:48;;;;;;;15.13;12.13;;;8.20;99.90;;;;;;5028655;28;20088;-68
2022/04/22 05:33:00;;;;;;;16.95;11.68;;;8.20;99.90;;;;;;5028635;28;20061;-69
2022/04/22 05:35:27;;;;;;;30.45;13.60;;;8.20;99.90;;;;;;5023897;28;20471;-69
2022/04/22 05:38:05;;;;;;;19.30;12.30;;;8.20;99.90;;;;;;5030114;28;20858;-69
2022/04/22 05:40:32;;;;;;;21.52;12.43;;;8.30;99.90;;;;;;5026775;28;20921;-68
2022/04/22 05:42:59;;;;;;;16.23;11.27;;;8.30;99.90;;;;;;5029428;28;20037;-69
2022/04/22 05:45:26;;;;;;;17.67;11.60;;;8.30;99.90;;;;;;5029472;28;20045;-69
2022/04/22 05:47:52;;;;;;;18.60;10.73;;;8.40;99.90;;;;;;5025584;28;20056;-69
2022/04/22 05:50:19;;;;;;;15.43;11.20;;;8.40;99.90;;;;;;5023672;28;20041;-69
2022/04/22 05:52:45;;;;;;;19.73;11.95;;;8.40;99.90;;;;;;5024475;28;20044;-69
2022/04/22 05:55:16;;;;;;;19.55;13.05;;;8.40;99.90;;;;;;5021463;28;20045;-69
2022/04/22 05:57:42;;;;;;;20.27;12.93;;;8.40;99.90;;;;;;5028767;28;20041;-69
2022/04/22 06:00:11;;;;;;;17.40;11.55;;;8.40;99.90;;;;;;5019056;28;20131;-70
2022/04/22 06:02:37;;;;;;;15.70;11.18;;;8.40;99.90;;;;;;5030430;28;20513;-69
2022/04/22 06:05:02;;;;;;;19.73;12.65;;;8.50;99.90;;;;;;5029799;28;20046;-70
2022/04/22 06:07:28;;;;;;;20.38;12.73;;;8.60;99.90;;;;;;5024637;28;20057;-70
2022/04/22 06:12:38;;;;;;;24.67;12.45;;;8.60;99.90;;;;;;5023123;28;20046;-71
2022/04/22 06:15:04;;;;;;;21.13;12.63;;;8.70;99.90;;;;;;5023983;28;20041;-69
2022/04/22 06:17:31;;;;;;;18.67;13.55;;;8.70;99.90;;;;;;5028670;28;20439;-69
2022/04/22 06:19:58;;;;;;;16.95;11.95;;;8.80;99.90;;;;;;5026739;28;20107;-70
2022/04/22 06:22:25;;;;;;;19.35;11.73;;;8.80;99.90;;;;;;5029945;28;20516;-68
2022/04/22 06:24:55;;;;;;;20.35;12.18;;;8.90;99.90;;;;;;5019060;28;20110;-68
2022/04/22 06:27:29;;;;;;;15.85;11.18;;;9.00;99.90;;;;;;5024798;28;20208;-68
2022/04/22 06:29:56;;;;;;;20.67;11.70;;;9.00;99.90;;;;;;5027522;28;20106;-69
2022/04/22 06:32:23;;;;;;;16.77;11.70;;;9.10;99.90;;;;;;5037227;28;20100;-69
2022/04/22 06:34:50;;;;;;;20.85;11.95;;;9.20;99.90;;;;;;5034716;28;20410;-68
2022/04/22 06:37:16;;;;;;;26.15;11.25;;;9.20;99.90;;;;;;5028817;28;20065;-69
2022/04/22 06:47:58;;;;;;;18.52;11.23;;;9.50;99.90;;;;;;5029371;28;20050;-69
2022/04/22 06:50:24;;;;;;;16.20;11.57;;;9.50;99.90;;;;;;5028643;28;20033;-69
2022/04/22 06:52:50;;;;;;;16.30;9.82;;;9.80;99.90;;;;;;5027977;28;20037;-69
2022/04/22 06:55:17;;;;;;;21.13;10.65;;;9.90;99.90;;;;;;5028864;28;20042;-70
2022/04/22 06:57:48;;;;;;;11.52;8.98;;;10.00;99.90;;;;;;5028206;28;20501;-69
2022/04/22 07:00:15;;;;;;;12.00;8.98;;;10.10;99.90;;;;;;5027332;28;20060;-70
2022/04/22 07:02:41;;;;;;;20.70;10.10;;;10.20;99.90;;;;;;5027614;28;20516;-69
2022/04/22 07:05:07;;;;;;;14.90;8.82;;;10.30;99.90;;;;;;5027447;28;20049;-70
2022/04/22 07:07:33;;;;;;;15.88;9.65;;;10.40;99.90;;;;;;5021406;28;20073;-69
2022/04/22 07:09:59;;;;;;;12.40;8.75;;;10.50;99.90;;;;;;5024946;28;20398;-69
2022/04/22 07:12:27;;;;;;;13.10;10.23;;;10.70;99.90;;;;;;5024343;28;20379;-69
2022/04/22 07:15:03;;;;;;;12.15;8.45;;;10.60;99.90;;;;;;5027664;28;20912;-69
2022/04/22 07:17:30;;;;;;;11.82;8.25;;;10.70;99.90;;;;;;5026975;28;20057;-70
2022/04/22 07:19:56;;;;;;;11.87;8.43;;;10.90;99.90;;;;;;5026989;28;20108;-69
2022/04/22 07:22:22;;;;;;;9.98;8.68;;;10.80;99.90;;;;;;5028906;28;20498;-69
2022/04/22 07:24:48;;;;;;;11.77;8.50;;;11.00;99.90;;;;;;5025502;28;21080;-69
2022/04/22 07:27:15;;;;;;;10.48;8.48;;;11.20;99.90;;;;;;5028858;28;20431;-69
2022/04/22 07:29:41;;;;;;;8.93;7.10;;;11.20;99.90;;;;;;5032528;28;20699;-69
2022/04/22 07:32:08;;;;;;;10.82;8.05;;;11.30;99.90;;;;;;5028526;28;20091;-68
2022/04/22 07:34:34;;;;;;;9.50;7.00;;;11.40;99.90;;;;;;5027243;28;20064;-69
2022/04/22 07:37:00;;;;;;;13.57;7.35;;;11.40;99.90;;;;;;5028531;28;20038;-69
2022/04/22 07:39:26;;;;;;;13.43;7.65;;;11.60;99.90;;;;;;5028738;28;20053;-68
2022/04/22 07:41:54;;;;;;;11.98;8.55;;;11.70;99.90;;;;;;5009460;28;20045;-69
2022/04/22 07:47:09;;;;;;;11.50;8.18;;;11.80;99.90;;;;;;5024261;28;20446;-68
2022/04/22 07:49:35;;;;;;;11.30;7.28;;;12.00;99.90;;;;;;5025538;28;20387;-68
2022/04/22 07:52:02;;;;;;;8.05;6.28;;;12.10;99.90;;;;;;5027616;28;20094;-68
2022/04/22 07:54:28;;;;;;;9.07;6.78;;;12.20;99.90;;;;;;5028898;28;20041;-69
2022/04/22 07:56:53;;;;;;;10.25;6.50;;;12.30;99.90;;;;;;5028287;28;20041;-69
2022/04/22 07:59:20;;;;;;;12.68;6.53;;;12.50;99.90;;;;;;5029032;28;20048;-68
2022/04/22 08:01:46;;;;;;;13.88;7.13;;;12.60;99.90;;;;;;5029387;28;20056;-68
2022/04/22 08:04:12;;;;;;;14.20;7.40;;;12.60;99.90;;;;;;5015784;28;20406;-69
2022/04/22 08:06:38;;;;;;;11.38;6.72;;;12.80;99.90;;;;;;5026333;28;20038;-68
2022/04/22 08:09:04;;;;;;;6.72;5.82;;;13.00;99.90;;;;;;5027945;28;20108;-69
2022/04/22 08:11:30;;;;;;;9.82;6.88;;;13.20;99.90;;;;;;5020796;28;20045;-69
2022/04/22 08:13:56;;;;;;;22.13;8.32;;;13.10;99.90;;;;;;5028810;28;20048;-69
2022/04/22 08:16:22;;;;;;;13.68;6.85;;;13.10;99.90;;;;;;5028435;28;20111;-68
2022/04/22 08:18:48;;;;;;;20.98;7.15;;;13.20;99.90;;;;;;5029200;28;20041;-68
2022/04/22 08:21:14;;;;;;;7.97;5.28;;;13.40;99.90;;;;;;5028053;28;20034;-69
2022/04/22 08:23:39;;;;;;;8.85;6.78;;;13.40;96.60;;;;;;5028705;28;20406;-69
2022/04/22 08:26:09;;;;;;;21.25;8.25;;;13.40;97.10;;;;;;5028086;28;20087;-69
2022/04/22 08:28:35;;;;;;;9.57;6.53;;;13.60;93.70;;;;;;5028432;28;20132;-69
2022/04/22 08:31:00;;;;;;;11.45;6.63;;;13.80;94.60;;;;;;5019738;28;20185;-69
2022/04/22 08:33:26;;;;;;;8.60;6.00;;;13.90;94.00;;;;;;5027485;28;20084;-69
2022/04/22 08:35:52;;;;;;;9.13;7.28;;;13.90;91.70;;;;;;5028058;28;20128;-69
2022/04/22 08:38:18;;;;;;;10.40;7.07;;;13.80;90.80;;;;;;5027104;28;20037;-69
2022/04/22 08:40:44;;;;;;;11.77;7.18;;;13.90;90.20;;;;;;5027416;28;20128;-69
2022/04/22 08:43:12;;;;;;;8.20;5.63;;;14.00;88.70;;;;;;5026250;28;20080;-69
2022/04/22 08:45:37;;;;;;;10.25;7.05;;;14.10;85.50;;;;;;5009906;28;20060;-68
2022/04/22 08:50:55;;;;;;;8.20;7.30;;;14.30;85.10;;;;;;5027474;28;20490;-68
2022/04/22 08:53:26;;;;;;;13.68;6.80;;;14.50;82.40;;;;;;5026402;28;20045;-69
2022/04/22 08:55:56;;;;;;;13.13;6.97;;;14.50;81.90;;;;;;5027243;28;20405;-69
2022/04/22 08:58:25;;;;;;;10.15;7.35;;;14.60;81.80;;;;;;5027638;28;20708;-69
2022/04/22 09:00:52;;;;;;;10.20;7.18;;;14.80;81.30;;;;;;5027424;28;20050;-69
2022/04/22 09:03:19;;;;;;;11.20;6.05;;;14.80;78.00;;;;;;5028008;28;20124;-69
2022/04/22 09:05:45;;;;;;;8.95;5.90;;;14.90;78.60;;;;;;5027166;28;20058;-68
2022/04/22 09:08:12;;;;;;;11.70;6.28;;;15.00;75.80;;;;;;5027517;28;20107;-68
2022/04/22 09:10:40;;;;;;;8.75;6.07;;;15.10;74.70;;;;;;5026480;28;20049;-68
2022/04/22 09:13:10;;;;;;;8.00;5.10;;;15.20;71.90;;;;;;5007022;28;20045;-68
2022/04/22 09:15:38;;;;;;;7.95;5.65;;;15.10;71.50;;;;;;5027413;28;20394;-68
2022/04/22 09:18:12;;;;;;;7.35;6.45;;;15.20;70.70;;;;;;5026987;28;20049;-68
2022/04/22 09:20:38;;;;;;;11.52;6.28;;;15.10;71.00;;;;;;5026858;28;20038;-68
2022/04/22 09:23:31;;;;;;;7.43;5.38;;;15.30;69.50;;;;;;5019772;28;20049;-69
2022/04/22 09:25:57;;;;;;;20.75;5.60;;;15.20;68.90;;;;;;5025797;28;20116;-69
2022/04/22 09:28:24;;;;;;;9.98;6.90;;;15.40;67.70;;;;;;5024804;28;20073;-69
2022/04/22 09:31:01;;;;;;;11.75;6.30;;;15.40;68.90;;;;;;5017035;28;20057;-69
2022/04/22 09:33:47;;;;;;;10.05;6.38;;;15.60;68.20;;;;;;5027222;28;20037;-68
2022/04/22 09:45:04;;;;;;;7.13;5.75;;;15.90;66.60;;;;;;5028437;28;20049;-69
2022/04/22 09:47:32;;;;;;;9.40;5.72;;;15.60;65.30;;;;;;5026987;28;20050;-69
2022/04/22 09:49:59;;;;;;;13.20;8.27;;;15.70;65.30;;;;;;5027424;28;20033;-69
2022/04/22 09:52:29;;;;;;;9.30;7.15;;;15.60;65.90;;;;;;5025465;28;20049;-68
2022/04/22 09:55:07;;;;;;;12.45;8.13;;;15.60;67.50;;;;;;5028974;28;20191;-69
2022/04/22 09:57:58;;;;;;;14.57;8.23;;;15.70;67.30;;;;;;5021974;28;20088;-69
2022/04/22 10:00:26;;;;;;;9.50;7.38;;;15.90;67.20;;;;;;5017424;28;20284;-68
2022/04/22 10:02:53;;;;;;;;;;;15.80;66.70;;;;;;5027625;28;20490;-69
2022/04/22 10:05:21;;;;;;;11.77;7.28;;;15.90;67.30;;;;;;5035758;28;19921;-69
2022/04/22 10:07:52;;;;;;;14.38;8.00;;;15.90;66.70;;;;;;5029708;28;20085;-69
2022/04/22 10:10:23;;;;;;;14.30;8.70;;;16.00;67.20;;;;;;5029275;28;20037;-68
2022/04/22 10:12:52;;;;;;;17.13;9.98;;;16.00;67.70;;;;;;5031687;28;20052;-68
2022/04/22 10:15:19;;;;;;;13.80;8.18;;;15.80;67.20;;;;;;5029367;28;20041;-68
2022/04/22 10:17:49;;;;;;;17.63;9.32;;;15.90;66.50;;;;;;5030479;28;20073;-66
2022/04/22 10:20:15;;;;;;;20.90;7.50;;;16.00;68.10;;;;;;5029227;28;20053;-66
2022/04/22 10:22:41;;;;;;;25.02;10.13;;;15.90;67.20;;;;;;5029121;28;20049;-66
2022/04/22 10:25:09;;;;;;;19.67;10.00;;;16.00;67.50;;;;;;5026723;28;20091;-66
2022/04/22 10:27:39;;;;;;;;;;;15.90;67.70;;;;;;5028262;28;20153;-65
2022/04/22 10:30:09;;;;;;;13.77;8.75;;;16.20;64.50;;;;;;5025049;28;19948;-66
2022/04/22 10:32:36;;;;;;;17.10;8.27;;;16.40;67.60;;;;;;5026605;28;20200;-66
2022/04/22 10:35:03;;;;;;;16.83;8.75;;;16.60;66.80;;;;;;5028602;28;20118;-66
2022/04/22 10:37:31;;;;;;;15.05;9.65;;;16.50;66.10;;;;;;5028732;28;20049;-66
2022/04/22 10:39:58;;;;;;;17.95;8.75;;;16.50;65.20;;;;;;5028656;28;20037;-66
2022/04/22 10:42:34;;;;;;;19.20;10.63;;;16.50;65.00;;;;;;5028961;28;20584;-67
2022/04/22 10:47:53;;;;;;;13.55;7.53;;;16.60;65.40;;;;;;5014438;28;20037;-67
2022/04/22 10:50:23;;;;;;;15.70;8.77;;;16.60;63.10;;;;;;5028122;28;20409;-68
2022/04/22 10:53:28;;;;;;;10.32;8.95;;;16.80;63.60;;;;;;5024555;28;20490;-68
2022/04/22 10:56:21;;;;;;;12.43;9.10;;;16.60;62.10;;;;;;5022718;28;20053;-67
2022/04/22 10:58:47;;;;;;;10.82;8.40;;;16.60;62.00;;;;;;5011578;28;20518;-68
2022/04/22 11:01:29;;;;;;;11.68;8.73;;;16.70;62.80;;;;;;5036484;28;20045;-68
2022/04/22 11:03:56;;;;;;;14.13;9.13;;;16.70;61.10;;;;;;5013007;28;20567;-68
2022/04/22 11:06:22;;;;;;;12.20;8.90;;;16.90;61.20;;;;;;5028583;28;20697;-67
2022/04/22 11:09:02;;;;;;;10.23;8.88;;;16.80;60.30;;;;;;5028552;28;20059;-68
2022/04/22 11:11:40;;;;;;;26.33;9.65;;;16.70;59.30;;;;;;5028393;28;20133;-67
2022/04/22 11:14:23;;;;;;;16.65;9.57;;;16.90;60.90;;;;;;5028287;28;20049;-68
2022/04/22 11:16:49;;;;;;;11.50;8.00;;;17.00;61.90;;;;;;5023020;28;20490;-67
2022/04/22 11:19:18;;;;;;;10.20;8.27;;;17.20;60.00;;;;;;5027514;28;20096;-68
2022/04/22 11:21:46;;;;;;;11.77;8.85;;;17.20;59.40;;;;;;5028625;28;20091;-67
2022/04/22 11:24:24;;;;;;;12.05;8.05;;;17.00;61.50;;;;;;5027053;28;20095;-67
2022/04/22 11:26:52;;;;;;;12.20;8.52;;;17.00;59.30;;;;;;5025447;28;20117;-69
2022/04/22 11:29:18;;;;;;;9.27;7.85;;;17.10;59.00;;;;;;5026329;28;20095;-68
2022/04/22 11:32:03;;;;;;;26.17;9.73;;;17.20;58.60;;;;;;5029739;28;20132;-68
2022/04/22 11:34:53;;;;;;;13.18;9.45;;;17.10;59.20;;;;;;5028949;28;20049;-67
2022/04/22 11:37:21;;;;;;;10.77;9.02;;;17.40;58.40;;;;;;5028777;28;20401;-67
2022/04/22 11:39:48;;;;;;;11.50;8.02;;;17.50;59.50;;;;;;5028693;28;20056;-68
2022/04/22 11:42:15;;;;;;;23.20;10.60;;;17.40;58.30;;;;;;5027951;28;20060;-68
2022/04/22 11:44:41;;;;;;;12.20;9.83;;;17.30;58.60;;;;;;5023878;28;20120;-67
2022/04/22 11:47:08;;;;;;;12.52;9.10;;;17.60;59.10;;;;;;5028576;28;20311;-68
2022/04/22 11:49:33;;;;;;;14.05;9.85;;;17.50;59.70;;;;;;5028576;28;20144;-66
2022/04/22 11:52:00;;;;;;;13.48;9.52;;;17.60;58.40;;;;;;5026877;28;20132;-68
2022/04/22 11:54:26;;;;;;;15.05;11.05;;;17.60;57.40;;;;;;5023366;28;20041;-67
2022/04/22 11:56:53;;;;;;;16.02;10.15;;;17.60;58.60;;;;;;5028682;28;20034;-68
2022/04/22 11:59:22;;;;;;;15.77;10.77;;;17.30;58.10;;;;;;5029206;28;20053;-68
2022/04/22 12:10:06;;;;;;;21.30;10.75;;;17.80;58.70;;;;;;5020335;28;20649;-68
2022/04/22 12:12:32;;;;;;;11.63;9.48;;;17.80;57.90;;;;;;5027799;28;20084;-68
2022/04/22 12:15:03;;;;;;;16.90;10.85;;;17.70;58.10;;;;;;5025393;28;20050;-67
2022/04/22 12:17:30;;;;;;;14.05;10.45;;;18.10;58.40;;;;;;5027188;28;20080;-67
2022/04/22 12:19:56;;;;;;;18.83;11.10;;;18.00;57.50;;;;;;5028493;28;20080;-67
2022/04/22 12:22:23;;;;;;;14.35;12.20;;;17.90;57.80;;;;;;5026691;28;20092;-67
2022/04/22 12:25:08;;;;;;;14.10;11.07;;;17.70;58.20;;;;;;5024473;28;20497;-67
2022/04/22 12:27:41;;;;;;;12.13;9.98;;;17.80;58.40;;;;;;5003684;28;20053;-67
2022/04/22 12:30:11;;;;;;;13.57;10.88;;;18.00;58.70;;;;;;5021535;28;20045;-68
2022/04/22 12:32:41;;;;;;;20.58;11.75;;;17.80;58.00;;;;;;5024512;28;20038;-69
2022/04/22 12:35:11;;;;;;;14.02;11.55;;;18.00;58.60;;;;;;5025153;28;20045;-68
2022/04/22 12:37:42;;;;;;;15.93;12.35;;;18.20;58.40;;;;;;5015276;28;20076;-68
2022/04/22 12:40:10;;;;;;;29.73;13.07;;;18.10;57.70;;;;;;5008132;28;20046;-67
2022/04/22 12:42:36;;;;;;;19.70;14.13;;;18.10;58.70;;;;;;5013744;28;20399;-68
2022/04/22 12:53:37;;;;;;;19.63;14.32;;;18.60;58.60;;;;;;5023536;28;20156;-67
2022/04/22 12:56:04;;;;;;;26.55;16.70;;;18.30;57.80;;;;;;5020410;28;20133;-68
2022/04/22 12:58:30;;;;;;;20.73;14.15;;;18.30;58.50;;;;;;5024489;28;20578;-68
2022/04/22 13:00:56;;;;;;;18.75;13.73;;;18.30;60.00;;;;;;5023981;28;20132;-70
2022/04/22 13:03:22;;;;;;;20.80;15.02;;;18.60;58.60;;;;;;5025267;28;20453;-67
2022/04/22 13:05:51;;;;;;;19.02;15.07;;;18.20;58.40;;;;;;5018960;28;20046;-67
2022/04/22 13:08:17;;;;;;;22.63;16.05;;;18.20;59.20;;;;;;5018170;28;20145;-67
2022/04/22 13:10:43;;;;;;;26.63;15.88;;;18.20;58.40;;;;;;5024437;28;20045;-67
2022/04/22 13:13:09;;;;;;;26.25;16.73;;;18.20;58.70;;;;;;5027279;28;20037;-67
2022/04/22 13:15:35;;;;;;;21.50;15.38;;;17.80;59.90;;;;;;5025645;28;20057;-68
2022/04/22 13:18:00;;;;;;;29.50;16.33;;;17.80;60.40;;;;;;5029432;28;20059;-68
2022/04/22 13:20:26;;;;;;;23.35;17.55;;;17.60;61.60;;;;;;5028746;28;20506;-68
2022/04/22 13:22:52;;;;;;;21.13;16.17;;;17.50;62.50;;;;;;5021006;28;20049;-67
2022/04/22 13:25:19;;;;;;;24.38;17.42;;;17.30;62.50;;;;;;5025397;28;20057;-68
2022/04/22 13:27:46;;;;;;;24.02;16.92;;;17.30;61.80;;;;;;5029059;28;20049;-68
2022/04/22 13:30:15;;;;;;;54.10;18.27;;;17.60;62.80;;;;;;5028850;28;20049;-67
2022/04/22 13:32:41;;;;;;;33.35;18.50;;;18.00;61.80;;;;;;5030948;28;20045;-68
2022/04/22 13:35:10;;;;;;;24.55;17.05;;;18.10;60.80;;;;;;5028523;28;20490;-67
2022/04/22 13:37:36;;;;;;;21.80;15.90;;;18.10;60.30;;;;;;5030058;28;20055;-67
2022/04/22 13:40:02;;;;;;;17.27;14.75;;;18.10;58.90;;;;;;5030698;28;20418;-67
2022/04/22 13:42:27;;;;;;;27.27;17.15;;;18.10;59.50;;;;;;5030652;28;20046;-67
2022/04/22 13:53:08;;;;;;;15.75;12.52;;;17.80;59.50;;;;;;5029508;28;20045;-67
2022/04/22 13:55:39;;;;;;;15.80;13.27;;;17.80;58.70;;;;;;5028055;28;20064;-66